sensor_id;sensor_type;location;lat;lon;timestamp;temperature;humidity
57434;DHT22;43277;52.672;6.984;2023-08-30T00:00:19;14.20;99.90
57434;DHT22;43277;52.672;6.984;2023-08-30T00:02:48;14.10;99.90
57434;DHT22;43277;52.672;6.984;2023-08-30T00:05:14;14.00;99.90
57434;DHT22;43277;52.672;6.984;2023-08-30T00:07:40;14.10;99.90
57434;DHT22;43277;52.672;6.984;2023-08-30T00:10:08;14.20;99.90
57434;DHT22;43277;52.672;6.984;2023-08-30T00:12:36;14.10;99.90
57434;DHT22;43277;52.672;6.984;2023-08-30T00:15:01;14.10;99.90
57434;DHT22;43277;52.672;6.984;2023-08-30T00:17:27;14.00;99.90
57434;DHT22;43277;52.672;6.984;2023-08-30T00:19:53;14.00;99.90
57434;DHT22;43277;52.672;6.984;2023-08-30T00:22:21;13.90;99.90
57434;DHT22;43277;52.672;6.984;2023-08-30T00:24:47;13.80;99.90
57434;DHT22;43277;52.672;6.984;2023-08-30T00:27:12;13.80;99.90
57434;DHT22;43277;52.672;6.984;2023-08-30T00:29:38;13.80;99.90
57434;DHT22;43277;52.672;6.984;2023-08-30T00:32:11;13.70;99.90
57434;DHT22;43277;52.672;6.984;2023-08-30T00:34:40;13.70;99.90
57434;DHT22;43277;52.672;6.984;2023-08-30T00:37:05;13.60;99.90
57434;DHT22;43277;52.672;6.984;2023-08-30T00:39:31;13.70;99.90
57434;DHT22;43277;52.672;6.984;2023-08-30T00:41:57;13.60;99.90
57434;DHT22;43277;52.672;6.984;2023-08-30T00:44:22;13.50;99.90
57434;DHT22;43277;52.672;6.984;2023-08-30T00:46:48;13.50;99.90
57434;DHT22;43277;52.672;6.984;2023-08-30T00:49:14;13.50;99.90
57434;DHT22;43277;52.672;6.984;2023-08-30T00:51:39;13.40;99.90
57434;DHT22;43277;52.672;6.984;2023-08-30T00:54:06;13.40;99.90
57434;DHT22;43277;52.672;6.984;2023-08-30T00:56:32;13.50;99.90
57434;DHT22;43277;52.672;6.984;2023-08-30T00:58:59;13.30;99.90
57434;DHT22;43277;52.672;6.984;2023-08-30T01:01:25;13.40;99.90
57434;DHT22;43277;52.672;6.984;2023-08-30T01:03:51;13.30;99.90
57434;DHT22;43277;52.672;6.984;2023-08-30T01:06:16;13.20;99.90
57434;DHT22;43277;52.672;6.984;2023-08-30T01:08:42;13.20;99.90
57434;DHT22;43277;52.672;6.984;2023-08-30T01:11:29;13.20;99.90
57434;DHT22;43277;52.672;6.984;2023-08-30T01:14:07;13.20;99.90
57434;DHT22;43277;52.672;6.984;2023-08-30T01:16:35;13.20;99.90
57434;DHT22;43277;52.672;6.984;2023-08-30T01:19:10;13.20;99.90
57434;DHT22;43277;52.672;6.984;2023-08-30T01:27:29;13.20;99.90
57434;DHT22;43277;52.672;6.984;2023-08-30T01:29:58;13.20;99.90
57434;DHT22;43277;52.672;6.984;2023-08-30T01:32:24;13.10;99.90
57434;DHT22;43277;52.672;6.984;2023-08-30T01:34:51;13.10;99.90
57434;DHT22;43277;52.672;6.984;2023-08-30T01:37:17;13.10;99.90
57434;DHT22;43277;52.672;6.984;2023-08-30T01:39:44;13.00;99.90
57434;DHT22;43277;52.672;6.984;2023-08-30T01:42:10;12.90;99.90
57434;DHT22;43277;52.672;6.984;2023-08-30T01:44:38;12.90;99.90
57434;DHT22;43277;52.672;6.984;2023-08-30T01:47:06;12.90;99.90
57434;DHT22;43277;52.672;6.984;2023-08-30T01:49:33;12.80;99.90
57434;DHT22;43277;52.672;6.984;2023-08-30T01:51:59;12.70;99.90
57434;DHT22;43277;52.672;6.984;2023-08-30T01:54:26;12.70;99.90
57434;DHT22;43277;52.672;6.984;2023-08-30T01:56:53;12.70;99.90
57434;DHT22;43277;52.672;6.984;2023-08-30T01:59:18;12.70;99.90
57434;DHT22;43277;52.672;6.984;2023-08-30T02:01:44;12.70;99.90
57434;DHT22;43277;52.672;6.984;2023-08-30T02:04:09;12.70;99.90
57434;DHT22;43277;52.672;6.984;2023-08-30T02:06:39;12.60;99.90
57434;DHT22;43277;52.672;6.984;2023-08-30T02:09:29;12.60;99.90
57434;DHT22;43277;52.672;6.984;2023-08-30T02:11:59;12.60;99.90
57434;DHT22;43277;52.672;6.984;2023-08-30T02:14:27;12.60;99.90
57434;DHT22;43277;52.672;6.984;2023-08-30T02:16:55;12.50;99.90
57434;DHT22;43277;52.672;6.984;2023-08-30T02:19:21;12.50;99.90
57434;DHT22;43277;52.672;6.984;2023-08-30T02:21:47;12.50;99.90
57434;DHT22;43277;52.672;6.984;2023-08-30T02:24:13;12.50;99.90
57434;DHT22;43277;52.672;6.984;2023-08-30T02:26:39;12.40;99.90
57434;DHT22;43277;52.672;6.984;2023-08-30T02:29:05;12.40;99.90
57434;DHT22;43277;52.672;6.984;2023-08-30T02:31:31;12.30;99.90
57434;DHT22;43277;52.672;6.984;2023-08-30T02:33:56;12.30;99.90
57434;DHT22;43277;52.672;6.984;2023-08-30T02:36:22;12.30;99.90
57434;DHT22;43277;52.672;6.984;2023-08-30T02:38:48;12.30;99.90
57434;DHT22;43277;52.672;6.984;2023-08-30T02:41:13;12.30;99.90
57434;DHT22;43277;52.672;6.984;2023-08-30T02:43:39;12.30;99.90
57434;DHT22;43277;52.672;6.984;2023-08-30T02:46:04;12.30;99.90
57434;DHT22;43277;52.672;6.984;2023-08-30T02:48:31;12.20;99.90
57434;DHT22;43277;52.672;6.984;2023-08-30T02:50:57;12.20;99.90
57434;DHT22;43277;52.672;6.984;2023-08-30T02:53:23;12.00;99.90
57434;DHT22;43277;52.672;6.984;2023-08-30T02:55:49;12.10;99.90
57434;DHT22;43277;52.672;6.984;2023-08-30T02:58:14;12.00;99.90
57434;DHT22;43277;52.672;6.984;2023-08-30T03:00:40;12.00;99.90
57434;DHT22;43277;52.672;6.984;2023-08-30T03:03:06;12.00;99.90
57434;DHT22;43277;52.672;6.984;2023-08-30T03:05:32;11.90;99.90
57434;DHT22;43277;52.672;6.984;2023-08-30T03:07:57;11.90;99.90
57434;DHT22;43277;52.672;6.984;2023-08-30T03:10:23;11.80;99.90
57434;DHT22;43277;52.672;6.984;2023-08-30T03:12:49;11.80;99.90
57434;DHT22;43277;52.672;6.984;2023-08-30T03:15:14;11.80;99.90
57434;DHT22;43277;52.672;6.984;2023-08-30T03:17:40;11.80;99.90
57434;DHT22;43277;52.672;6.984;2023-08-30T03:20:06;11.70;99.90
57434;DHT22;43277;52.672;6.984;2023-08-30T03:22:32;11.70;99.90
57434;DHT22;43277;52.672;6.984;2023-08-30T03:24:58;11.70;99.90
57434;DHT22;43277;52.672;6.984;2023-08-30T03:27:24;11.70;99.90
57434;DHT22;43277;52.672;6.984;2023-08-30T03:29:50;11.70;99.90
57434;DHT22;43277;52.672;6.984;2023-08-30T03:32:17;11.80;99.90
57434;DHT22;43277;52.672;6.984;2023-08-30T03:34:47;11.80;99.90
57434;DHT22;43277;52.672;6.984;2023-08-30T03:37:14;11.80;99.90
57434;DHT22;43277;52.672;6.984;2023-08-30T03:39:40;11.80;99.90
57434;DHT22;43277;52.672;6.984;2023-08-30T03:42:06;11.80;99.90
57434;DHT22;43277;52.672;6.984;2023-08-30T03:44:31;11.80;99.90
57434;DHT22;43277;52.672;6.984;2023-08-30T03:46:57;11.80;99.90
57434;DHT22;43277;52.672;6.984;2023-08-30T03:49:23;11.80;99.90
57434;DHT22;43277;52.672;6.984;2023-08-30T03:51:48;11.80;99.90
57434;DHT22;43277;52.672;6.984;2023-08-30T03:54:14;11.80;99.90
57434;DHT22;43277;52.672;6.984;2023-08-30T03:56:45;11.80;99.90
57434;DHT22;43277;52.672;6.984;2023-08-30T03:59:11;11.80;99.90
57434;DHT22;43277;52.672;6.984;2023-08-30T04:01:37;11.80;99.90
57434;DHT22;43277;52.672;6.984;2023-08-30T04:04:03;11.90;99.90
57434;DHT22;43277;52.672;6.984;2023-08-30T04:06:29;11.90;99.90
57434;DHT22;43277;52.672;6.984;2023-08-30T04:08:54;11.80;99.90
57434;DHT22;43277;52.672;6.984;2023-08-30T04:11:20;11.80;99.90
57434;DHT22;43277;52.672;6.984;2023-08-30T04:13:45;11.90;99.90
57434;DHT22;43277;52.672;6.984;2023-08-30T04:16:11;11.80;99.90
57434;DHT22;43277;52.672;6.984;2023-08-30T04:18:37;11.70;99.90
57434;DHT22;43277;52.672;6.984;2023-08-30T04:21:03;11.70;99.90
57434;DHT22;43277;52.672;6.984;2023-08-30T04:23:29;11.70;99.90
57434;DHT22;43277;52.672;6.984;2023-08-30T04:25:55;11.70;99.90
57434;DHT22;43277;52.672;6.984;2023-08-30T04:28:21;11.70;99.90
57434;DHT22;43277;52.672;6.984;2023-08-30T04:30:46;11.70;99.90
57434;DHT22;43277;52.672;6.984;2023-08-30T04:33:12;11.70;99.90
57434;DHT22;43277;52.672;6.984;2023-08-30T04:35:37;11.70;99.90
57434;DHT22;43277;52.672;6.984;2023-08-30T04:38:04;11.70;99.90
57434;DHT22;43277;52.672;6.984;2023-08-30T04:40:31;11.70;99.90
57434;DHT22;43277;52.672;6.984;2023-08-30T04:42:58;11.70;99.90
57434;DHT22;43277;52.672;6.984;2023-08-30T04:45:24;11.70;99.90
57434;DHT22;43277;52.672;6.984;2023-08-30T04:47:49;11.70;99.90
57434;DHT22;43277;52.672;6.984;2023-08-30T04:50:15;11.70;99.90
57434;DHT22;43277;52.672;6.984;2023-08-30T04:52:42;11.70;99.90
57434;DHT22;43277;52.672;6.984;2023-08-30T04:55:08;11.70;99.90
57434;DHT22;43277;52.672;6.984;2023-08-30T04:57:34;11.70;99.90
57434;DHT22;43277;52.672;6.984;2023-08-30T04:59:59;11.80;99.90
57434;DHT22;43277;52.672;6.984;2023-08-30T05:02:29;11.70;99.90
57434;DHT22;43277;52.672;6.984;2023-08-30T05:04:55;11.70;99.90
57434;DHT22;43277;52.672;6.984;2023-08-30T05:07:20;11.70;99.90
57434;DHT22;43277;52.672;6.984;2023-08-30T05:09:46;11.80;99.90
57434;DHT22;43277;52.672;6.984;2023-08-30T05:12:12;11.80;99.90
57434;DHT22;43277;52.672;6.984;2023-08-30T05:14:37;11.80;99.90
57434;DHT22;43277;52.672;6.984;2023-08-30T05:17:03;11.80;99.90
57434;DHT22;43277;52.672;6.984;2023-08-30T05:19:29;11.90;99.90
57434;DHT22;43277;52.672;6.984;2023-08-30T05:21:54;11.90;99.90
57434;DHT22;43277;52.672;6.984;2023-08-30T05:24:22;12.00;99.90
57434;DHT22;43277;52.672;6.984;2023-08-30T05:26:48;12.00;99.90
57434;DHT22;43277;52.672;6.984;2023-08-30T05:29:14;12.00;99.90
57434;DHT22;43277;52.672;6.984;2023-08-30T05:31:41;12.20;99.90
57434;DHT22;43277;52.672;6.984;2023-08-30T05:34:06;12.20;99.90
57434;DHT22;43277;52.672;6.984;2023-08-30T05:36:32;12.20;99.90
57434;DHT22;43277;52.672;6.984;2023-08-30T05:38:58;12.30;99.90
57434;DHT22;43277;52.672;6.984;2023-08-30T05:41:23;12.30;99.90
57434;DHT22;43277;52.672;6.984;2023-08-30T05:43:49;12.40;99.90
57434;DHT22;43277;52.672;6.984;2023-08-30T05:46:14;12.40;99.90
57434;DHT22;43277;52.672;6.984;2023-08-30T05:48:41;12.50;99.90
57434;DHT22;43277;52.672;6.984;2023-08-30T05:51:07;12.50;99.90
57434;DHT22;43277;52.672;6.984;2023-08-30T05:53:32;12.60;99.90
57434;DHT22;43277;52.672;6.984;2023-08-30T05:55:58;12.70;99.90
57434;DHT22;43277;52.672;6.984;2023-08-30T05:58:24;12.70;99.90
57434;DHT22;43277;52.672;6.984;2023-08-30T06:00:49;12.70;99.90
57434;DHT22;43277;52.672;6.984;2023-08-30T06:03:15;12.70;99.90
57434;DHT22;43277;52.672;6.984;2023-08-30T06:05:41;12.80;99.90
57434;DHT22;43277;52.672;6.984;2023-08-30T06:08:08;12.80;99.90
57434;DHT22;43277;52.672;6.984;2023-08-30T06:10:34;12.90;99.90
57434;DHT22;43277;52.672;6.984;2023-08-30T06:13:00;12.90;99.90
57434;DHT22;43277;52.672;6.984;2023-08-30T06:15:26;13.00;99.90
57434;DHT22;43277;52.672;6.984;2023-08-30T06:17:52;13.00;99.90
57434;DHT22;43277;52.672;6.984;2023-08-30T06:20:17;13.00;99.90
57434;DHT22;43277;52.672;6.984;2023-08-30T06:22:43;13.10;99.90
57434;DHT22;43277;52.672;6.984;2023-08-30T06:25:09;13.20;99.90
57434;DHT22;43277;52.672;6.984;2023-08-30T06:27:41;13.20;99.90
57434;DHT22;43277;52.672;6.984;2023-08-30T06:30:09;13.30;99.90
57434;DHT22;43277;52.672;6.984;2023-08-30T06:32:34;13.30;99.90
57434;DHT22;43277;52.672;6.984;2023-08-30T06:35:00;13.30;99.90
57434;DHT22;43277;52.672;6.984;2023-08-30T06:37:28;13.40;99.90
57434;DHT22;43277;52.672;6.984;2023-08-30T06:39:54;13.40;99.90
57434;DHT22;43277;52.672;6.984;2023-08-30T06:42:19;13.60;99.90
57434;DHT22;43277;52.672;6.984;2023-08-30T06:44:45;13.60;99.90
57434;DHT22;43277;52.672;6.984;2023-08-30T06:47:10;13.70;99.90
57434;DHT22;43277;52.672;6.984;2023-08-30T06:49:36;13.80;99.90
57434;DHT22;43277;52.672;6.984;2023-08-30T06:52:02;13.90;99.90
57434;DHT22;43277;52.672;6.984;2023-08-30T06:54:30;14.00;99.90
57434;DHT22;43277;52.672;6.984;2023-08-30T06:57:02;14.10;99.90
57434;DHT22;43277;52.672;6.984;2023-08-30T06:59:28;14.20;99.90
57434;DHT22;43277;52.672;6.984;2023-08-30T07:01:54;14.20;99.90
57434;DHT22;43277;52.672;6.984;2023-08-30T07:04:19;14.40;99.90
57434;DHT22;43277;52.672;6.984;2023-08-30T07:06:45;14.60;99.90
57434;DHT22;43277;52.672;6.984;2023-08-30T07:09:11;14.70;99.90
57434;DHT22;43277;52.672;6.984;2023-08-30T07:11:42;14.90;99.90
57434;DHT22;43277;52.672;6.984;2023-08-30T07:14:11;15.10;99.90
57434;DHT22;43277;52.672;6.984;2023-08-30T07:16:38;15.20;99.90
57434;DHT22;43277;52.672;6.984;2023-08-30T07:19:03;15.40;99.90
57434;DHT22;43277;52.672;6.984;2023-08-30T07:21:29;15.50;99.90
57434;DHT22;43277;52.672;6.984;2023-08-30T07:23:55;15.60;99.90
57434;DHT22;43277;52.672;6.984;2023-08-30T07:26:21;15.70;99.90
57434;DHT22;43277;52.672;6.984;2023-08-30T07:28:46;15.80;99.90
57434;DHT22;43277;52.672;6.984;2023-08-30T07:31:12;15.90;99.90
57434;DHT22;43277;52.672;6.984;2023-08-30T07:33:40;16.00;99.90
57434;DHT22;43277;52.672;6.984;2023-08-30T07:36:07;16.10;99.90
57434;DHT22;43277;52.672;6.984;2023-08-30T07:38:33;16.20;99.90
57434;DHT22;43277;52.672;6.984;2023-08-30T07:41:00;16.40;99.90
57434;DHT22;43277;52.672;6.984;2023-08-30T07:43:26;16.50;99.90
57434;DHT22;43277;52.672;6.984;2023-08-30T07:45:52;16.70;99.90
57434;DHT22;43277;52.672;6.984;2023-08-30T07:48:17;16.80;99.90
57434;DHT22;43277;52.672;6.984;2023-08-30T07:50:43;16.80;99.90
57434;DHT22;43277;52.672;6.984;2023-08-30T07:53:08;16.80;99.90
57434;DHT22;43277;52.672;6.984;2023-08-30T07:55:36;16.80;99.90
57434;DHT22;43277;52.672;6.984;2023-08-30T07:58:01;16.80;99.90
57434;DHT22;43277;52.672;6.984;2023-08-30T08:00:31;16.80;99.90
57434;DHT22;43277;52.672;6.984;2023-08-30T08:02:57;16.80;99.90
57434;DHT22;43277;52.672;6.984;2023-08-30T08:05:22;16.80;99.90
57434;DHT22;43277;52.672;6.984;2023-08-30T08:07:52;16.90;99.90
57434;DHT22;43277;52.672;6.984;2023-08-30T08:10:18;16.90;99.90
57434;DHT22;43277;52.672;6.984;2023-08-30T08:12:44;16.80;99.90
57434;DHT22;43277;52.672;6.984;2023-08-30T08:15:09;16.90;99.90
57434;DHT22;43277;52.672;6.984;2023-08-30T08:17:35;16.90;99.90
57434;DHT22;43277;52.672;6.984;2023-08-30T08:20:01;17.00;99.90
57434;DHT22;43277;52.672;6.984;2023-08-30T08:22:27;17.00;99.90
57434;DHT22;43277;52.672;6.984;2023-08-30T08:24:54;17.00;99.90
57434;DHT22;43277;52.672;6.984;2023-08-30T08:27:21;17.30;99.90
57434;DHT22;43277;52.672;6.984;2023-08-30T08:29:47;17.40;99.90
57434;DHT22;43277;52.672;6.984;2023-08-30T08:32:12;17.50;99.90
57434;DHT22;43277;52.672;6.984;2023-08-30T08:34:38;17.60;99.90
57434;DHT22;43277;52.672;6.984;2023-08-30T08:37:04;17.80;99.90
57434;DHT22;43277;52.672;6.984;2023-08-30T08:39:30;17.80;99.90
57434;DHT22;43277;52.672;6.984;2023-08-30T08:41:57;17.80;99.90
57434;DHT22;43277;52.672;6.984;2023-08-30T08:44:26;17.70;99.90
57434;DHT22;43277;52.672;6.984;2023-08-30T08:46:53;17.60;99.90
57434;DHT22;43277;52.672;6.984;2023-08-30T08:49:20;17.60;99.90
57434;DHT22;43277;52.672;6.984;2023-08-30T08:51:45;17.50;99.90
57434;DHT22;43277;52.672;6.984;2023-08-30T08:54:12;17.40;99.90
57434;DHT22;43277;52.672;6.984;2023-08-30T08:56:39;17.30;99.90
57434;DHT22;43277;52.672;6.984;2023-08-30T08:59:05;17.30;99.90
57434;DHT22;43277;52.672;6.984;2023-08-30T09:01:34;17.20;99.90
57434;DHT22;43277;52.672;6.984;2023-08-30T09:04:07;17.10;99.90
57434;DHT22;43277;52.672;6.984;2023-08-30T09:06:33;17.10;99.90
57434;DHT22;43277;52.672;6.984;2023-08-30T09:08:59;17.10;99.90
57434;DHT22;43277;52.672;6.984;2023-08-30T09:11:25;17.10;99.90
57434;DHT22;43277;52.672;6.984;2023-08-30T09:13:51;17.10;99.90
57434;DHT22;43277;52.672;6.984;2023-08-30T09:16:17;17.00;99.90
57434;DHT22;43277;52.672;6.984;2023-08-30T09:18:42;17.00;99.90
57434;DHT22;43277;52.672;6.984;2023-08-30T09:21:09;17.00;99.90
57434;DHT22;43277;52.672;6.984;2023-08-30T09:23:35;17.10;99.90
57434;DHT22;43277;52.672;6.984;2023-08-30T09:26:02;17.00;99.90
57434;DHT22;43277;52.672;6.984;2023-08-30T09:28:28;17.00;99.90
57434;DHT22;43277;52.672;6.984;2023-08-30T09:30:54;17.00;99.90
57434;DHT22;43277;52.672;6.984;2023-08-30T09:33:33;17.00;99.90
57434;DHT22;43277;52.672;6.984;2023-08-30T09:35:59;16.90;99.90
57434;DHT22;43277;52.672;6.984;2023-08-30T09:38:25;16.80;99.90
57434;DHT22;43277;52.672;6.984;2023-08-30T09:40:52;16.70;99.90
57434;DHT22;43277;52.672;6.984;2023-08-30T09:43:19;16.70;99.90
57434;DHT22;43277;52.672;6.984;2023-08-30T09:45:47;16.70;99.90
57434;DHT22;43277;52.672;6.984;2023-08-30T09:48:13;16.80;99.90
57434;DHT22;43277;52.672;6.984;2023-08-30T09:50:41;16.60;99.90
57434;DHT22;43277;52.672;6.984;2023-08-30T09:53:08;16.50;99.90
57434;DHT22;43277;52.672;6.984;2023-08-30T09:55:35;16.30;99.90
57434;DHT22;43277;52.672;6.984;2023-08-30T09:58:04;16.10;99.90
57434;DHT22;43277;52.672;6.984;2023-08-30T10:00:31;16.00;99.90
57434;DHT22;43277;52.672;6.984;2023-08-30T10:02:58;15.90;99.90
57434;DHT22;43277;52.672;6.984;2023-08-30T10:05:25;15.90;99.90
57434;DHT22;43277;52.672;6.984;2023-08-30T10:07:52;15.80;99.90
57434;DHT22;43277;52.672;6.984;2023-08-30T10:10:19;15.80;99.90
57434;DHT22;43277;52.672;6.984;2023-08-30T10:12:46;15.70;99.90
57434;DHT22;43277;52.672;6.984;2023-08-30T10:15:12;15.80;99.90
57434;DHT22;43277;52.672;6.984;2023-08-30T10:17:41;15.80;99.90
57434;DHT22;43277;52.672;6.984;2023-08-30T10:20:10;15.80;99.90
57434;DHT22;43277;52.672;6.984;2023-08-30T10:22:38;15.80;99.90
57434;DHT22;43277;52.672;6.984;2023-08-30T10:25:19;15.90;99.90
57434;DHT22;43277;52.672;6.984;2023-08-30T10:27:47;16.10;99.90
57434;DHT22;43277;52.672;6.984;2023-08-30T10:30:15;16.20;99.90
57434;DHT22;43277;52.672;6.984;2023-08-30T10:32:42;16.30;99.90
57434;DHT22;43277;52.672;6.984;2023-08-30T10:35:11;16.40;99.90
57434;DHT22;43277;52.672;6.984;2023-08-30T10:37:38;16.40;99.90
57434;DHT22;43277;52.672;6.984;2023-08-30T10:40:05;16.40;99.90
57434;DHT22;43277;52.672;6.984;2023-08-30T10:42:31;16.40;99.90
57434;DHT22;43277;52.672;6.984;2023-08-30T10:45:07;16.40;99.90
57434;DHT22;43277;52.672;6.984;2023-08-30T10:47:37;16.50;99.90
57434;DHT22;43277;52.672;6.984;2023-08-30T10:50:12;16.40;99.90
57434;DHT22;43277;52.672;6.984;2023-08-30T10:52:38;16.50;99.90
57434;DHT22;43277;52.672;6.984;2023-08-30T10:55:08;16.50;99.90
57434;DHT22;43277;52.672;6.984;2023-08-30T10:57:34;16.50;99.90
57434;DHT22;43277;52.672;6.984;2023-08-30T11:00:18;16.50;99.90
57434;DHT22;43277;52.672;6.984;2023-08-30T11:02:45;16.50;99.90
57434;DHT22;43277;52.672;6.984;2023-08-30T11:05:11;16.50;99.90
57434;DHT22;43277;52.672;6.984;2023-08-30T11:07:37;16.50;99.90
57434;DHT22;43277;52.672;6.984;2023-08-30T11:10:07;16.50;99.90
57434;DHT22;43277;52.672;6.984;2023-08-30T11:12:34;16.50;99.90
57434;DHT22;43277;52.672;6.984;2023-08-30T11:15:01;16.50;99.90
57434;DHT22;43277;52.672;6.984;2023-08-30T11:17:27;16.40;99.90
57434;DHT22;43277;52.672;6.984;2023-08-30T11:20:19;16.50;99.90
57434;DHT22;43277;52.672;6.984;2023-08-30T11:22:46;16.50;99.90
57434;DHT22;43277;52.672;6.984;2023-08-30T11:25:13;16.50;99.90
57434;DHT22;43277;52.672;6.984;2023-08-30T11:27:40;16.40;99.90
57434;DHT22;43277;52.672;6.984;2023-08-30T11:30:07;16.40;99.90
57434;DHT22;43277;52.672;6.984;2023-08-30T11:32:38;16.40;99.90
57434;DHT22;43277;52.672;6.984;2023-08-30T11:35:05;16.40;99.90
57434;DHT22;43277;52.672;6.984;2023-08-30T11:37:31;16.40;99.90
57434;DHT22;43277;52.672;6.984;2023-08-30T11:39:58;16.40;99.90
57434;DHT22;43277;52.672;6.984;2023-08-30T11:42:24;16.30;99.90
57434;DHT22;43277;52.672;6.984;2023-08-30T11:44:50;16.20;99.90
57434;DHT22;43277;52.672;6.984;2023-08-30T11:47:23;16.20;99.90
57434;DHT22;43277;52.672;6.984;2023-08-30T11:49:52;16.20;99.90
57434;DHT22;43277;52.672;6.984;2023-08-30T11:52:18;16.10;99.90
57434;DHT22;43277;52.672;6.984;2023-08-30T11:54:46;16.00;99.90
57434;DHT22;43277;52.672;6.984;2023-08-30T11:57:12;16.00;99.90
57434;DHT22;43277;52.672;6.984;2023-08-30T11:59:38;16.00;99.90
57434;DHT22;43277;52.672;6.984;2023-08-30T12:02:04;15.90;99.90
57434;DHT22;43277;52.672;6.984;2023-08-30T12:04:31;16.00;99.90
57434;DHT22;43277;52.672;6.984;2023-08-30T12:06:56;16.00;99.90
57434;DHT22;43277;52.672;6.984;2023-08-30T12:09:22;16.00;99.90
57434;DHT22;43277;52.672;6.984;2023-08-30T12:11:49;16.10;99.90
57434;DHT22;43277;52.672;6.984;2023-08-30T12:14:14;16.00;99.90
57434;DHT22;43277;52.672;6.984;2023-08-30T12:16:40;16.00;99.90
57434;DHT22;43277;52.672;6.984;2023-08-30T12:19:10;16.00;99.90
57434;DHT22;43277;52.672;6.984;2023-08-30T12:21:40;16.10;99.90
57434;DHT22;43277;52.672;6.984;2023-08-30T12:24:06;16.10;99.90
57434;DHT22;43277;52.672;6.984;2023-08-30T12:26:32;16.00;99.90
57434;DHT22;43277;52.672;6.984;2023-08-30T12:29:04;16.00;99.90
57434;DHT22;43277;52.672;6.984;2023-08-30T12:31:31;16.00;99.90
57434;DHT22;43277;52.672;6.984;2023-08-30T12:33:56;16.00;99.90
57434;DHT22;43277;52.672;6.984;2023-08-30T12:36:22;16.00;99.90
57434;DHT22;43277;52.672;6.984;2023-08-30T12:38:48;16.00;99.90
57434;DHT22;43277;52.672;6.984;2023-08-30T12:41:13;16.00;99.90
57434;DHT22;43277;52.672;6.984;2023-08-30T12:43:39;16.00;99.90
57434;DHT22;43277;52.672;6.984;2023-08-30T12:46:05;16.00;99.90
57434;DHT22;43277;52.672;6.984;2023-08-30T12:48:30;16.00;99.90
57434;DHT22;43277;52.672;6.984;2023-08-30T12:50:56;15.90;99.90
57434;DHT22;43277;52.672;6.984;2023-08-30T12:53:22;15.90;99.90
57434;DHT22;43277;52.672;6.984;2023-08-30T12:55:48;16.00;99.90
57434;DHT22;43277;52.672;6.984;2023-08-30T12:58:13;16.00;99.90
57434;DHT22;43277;52.672;6.984;2023-08-30T13:00:39;15.90;99.90
57434;DHT22;43277;52.672;6.984;2023-08-30T13:03:05;16.00;99.90
57434;DHT22;43277;52.672;6.984;2023-08-30T13:05:31;15.90;99.90
57434;DHT22;43277;52.672;6.984;2023-08-30T13:07:58;15.90;99.90
57434;DHT22;43277;52.672;6.984;2023-08-30T13:10:24;16.00;99.90
57434;DHT22;43277;52.672;6.984;2023-08-30T13:12:50;16.10;99.90
57434;DHT22;43277;52.672;6.984;2023-08-30T13:15:15;16.10;99.90
57434;DHT22;43277;52.672;6.984;2023-08-30T13:17:41;16.10;99.90
57434;DHT22;43277;52.672;6.984;2023-08-30T13:20:07;16.10;99.90
57434;DHT22;43277;52.672;6.984;2023-08-30T13:22:33;16.10;99.90
57434;DHT22;43277;52.672;6.984;2023-08-30T13:24:58;16.10;99.90
57434;DHT22;43277;52.672;6.984;2023-08-30T13:27:24;16.10;99.90
57434;DHT22;43277;52.672;6.984;2023-08-30T13:29:50;16.10;99.90
57434;DHT22;43277;52.672;6.984;2023-08-30T13:32:15;16.10;99.90
57434;DHT22;43277;52.672;6.984;2023-08-30T13:34:41;16.10;99.90
57434;DHT22;43277;52.672;6.984;2023-08-30T13:37:11;16.10;99.90
57434;DHT22;43277;52.672;6.984;2023-08-30T13:39:37;16.00;99.90
57434;DHT22;43277;52.672;6.984;2023-08-30T13:42:03;16.10;99.90
57434;DHT22;43277;52.672;6.984;2023-08-30T13:44:29;16.20;99.90
57434;DHT22;43277;52.672;6.984;2023-08-30T13:46:54;16.40;99.90
57434;DHT22;43277;52.672;6.984;2023-08-30T13:49:20;16.70;99.90
57434;DHT22;43277;52.672;6.984;2023-08-30T13:51:45;17.10;99.90
57434;DHT22;43277;52.672;6.984;2023-08-30T13:54:11;17.40;99.90
57434;DHT22;43277;52.672;6.984;2023-08-30T13:56:37;17.60;99.90
57434;DHT22;43277;52.672;6.984;2023-08-30T13:59:06;17.80;99.90
57434;DHT22;43277;52.672;6.984;2023-08-30T14:01:32;17.80;99.90
57434;DHT22;43277;52.672;6.984;2023-08-30T14:03:58;17.70;99.90
57434;DHT22;43277;52.672;6.984;2023-08-30T14:06:23;17.60;99.90
57434;DHT22;43277;52.672;6.984;2023-08-30T14:08:49;17.60;99.90
57434;DHT22;43277;52.672;6.984;2023-08-30T14:11:15;17.70;99.90
57434;DHT22;43277;52.672;6.984;2023-08-30T14:13:41;18.00;99.90
57434;DHT22;43277;52.672;6.984;2023-08-30T14:16:07;18.30;99.90
57434;DHT22;43277;52.672;6.984;2023-08-30T14:18:32;18.30;99.90
57434;DHT22;43277;52.672;6.984;2023-08-30T14:20:59;18.30;99.90
57434;DHT22;43277;52.672;6.984;2023-08-30T14:23:26;18.20;99.90
57434;DHT22;43277;52.672;6.984;2023-08-30T14:26:04;18.30;99.90
57434;DHT22;43277;52.672;6.984;2023-08-30T14:28:39;18.30;99.90
57434;DHT22;43277;52.672;6.984;2023-08-30T14:31:11;18.30;99.90
57434;DHT22;43277;52.672;6.984;2023-08-30T14:33:43;18.40;99.90
57434;DHT22;43277;52.672;6.984;2023-08-30T14:36:11;18.50;99.90
57434;DHT22;43277;52.672;6.984;2023-08-30T14:38:36;18.40;99.90
57434;DHT22;43277;52.672;6.984;2023-08-30T14:41:03;18.30;99.90
57434;DHT22;43277;52.672;6.984;2023-08-30T14:43:29;18.30;99.90
57434;DHT22;43277;52.672;6.984;2023-08-30T14:46:05;18.50;99.90
57434;DHT22;43277;52.672;6.984;2023-08-30T14:48:34;18.50;99.90
57434;DHT22;43277;52.672;6.984;2023-08-30T14:51:01;18.50;99.90
57434;DHT22;43277;52.672;6.984;2023-08-30T14:53:27;18.40;99.90
57434;DHT22;43277;52.672;6.984;2023-08-30T14:55:52;18.30;99.90
57434;DHT22;43277;52.672;6.984;2023-08-30T14:58:19;18.50;99.90
57434;DHT22;43277;52.672;6.984;2023-08-30T15:00:47;18.60;99.90
57434;DHT22;43277;52.672;6.984;2023-08-30T15:03:13;18.60;99.90
57434;DHT22;43277;52.672;6.984;2023-08-30T15:05:38;18.60;99.90
57434;DHT22;43277;52.672;6.984;2023-08-30T15:08:05;18.80;99.90
57434;DHT22;43277;52.672;6.984;2023-08-30T15:10:31;19.70;99.90
57434;DHT22;43277;52.672;6.984;2023-08-30T15:12:56;21.10;99.90
57434;DHT22;43277;52.672;6.984;2023-08-30T15:15:22;22.00;99.90
57434;DHT22;43277;52.672;6.984;2023-08-30T15:17:48;21.80;99.90
57434;DHT22;43277;52.672;6.984;2023-08-30T15:20:13;21.60;99.90
57434;DHT22;43277;52.672;6.984;2023-08-30T15:22:39;21.80;99.90
57434;DHT22;43277;52.672;6.984;2023-08-30T15:25:05;21.60;99.90
57434;DHT22;43277;52.672;6.984;2023-08-30T15:27:33;21.00;99.90
57434;DHT22;43277;52.672;6.984;2023-08-30T15:29:59;20.70;99.90
57434;DHT22;43277;52.672;6.984;2023-08-30T15:32:24;21.30;99.90